Frederiksvaerk, Denmark
Current Conditions -  °F | °C
As of 9:50 PM on Saturday 22 Nov 2014 (Local Time) from EKRK Reporting Station
Light Rain Light Rain  
Wind Chill: 35°   Ceiling: 3900
Heat Index: 41°   Visibility: 6mi
Dew Point: 39°   Wind: 10mph
Humidity: 93%   Direction: 150°SSE
Pressure: 30.24"   Gusts: NA
Location:  55.97°N, 12.02°E
Report Text: EKRK 222050Z AUTO 15009KT 9999NDV -RA FEW018/// BKN039///OVC044/// 05/04 Q1024
Loading
Personal Weather Stations






























Interactive Weather Map New forecast layout! Learn more

10-Day Weather Forecast

Advertisements
Track Severe Weather on mobile